Time;durP1;ratioP1;P1;durP2;ratioP2;P2;SDS_P1;SDS_P2;PMS_P1;PMS_P2;Temp;Humidity;BMP_temperature;BMP_pressure;BME280_temperature;BME280_humidity;BME280_pressure;Samples;Min_cycle;Max_cycle;Signal;HPM_P1;HPM_P2
2021/06/27 00:00:34;;;;;;;54.30;28.90;;;12.60;99.90;;;;;;5014455;28;20061;-79
2021/06/27 00:03:00;;;;;;;57.72;29.77;;;12.60;99.90;;;;;;5011222;28;20042;-79
2021/06/27 00:05:28;;;;;;;61.97;31.52;;;12.70;99.90;;;;;;5014344;28;20029;-79
2021/06/27 00:07:55;;;;;;;62.60;32.25;;;12.70;99.90;;;;;;5014320;28;20030;-79
2021/06/27 00:10:34;;;;;;;63.35;33.38;;;12.70;99.90;;;;;;5014317;28;20022;-79
2021/06/27 00:13:00;;;;;;;69.25;33.30;;;12.80;99.90;;;;;;5013309;28;20038;-79
2021/06/27 00:15:34;;;;;;;74.55;35.33;;;12.70;99.90;;;;;;5012922;28;20022;-79
2021/06/27 00:18:01;;;;;;;61.58;32.25;;;12.80;99.90;;;;;;5013580;28;20038;-79
2021/06/27 00:20:30;;;;;;;62.22;31.70;;;12.80;99.90;;;;;;5012829;28;20034;-79
2021/06/27 00:22:55;;;;;;;68.30;31.88;;;12.80;99.90;;;;;;5004676;28;20551;-79
2021/06/27 00:25:23;;;;;;;59.38;31.20;;;12.80;99.90;;;;;;5009563;28;20113;-80
2021/06/27 00:27:50;;;;;;;64.07;32.85;;;12.90;99.90;;;;;;4994397;28;20026;-79
2021/06/27 00:30:18;;;;;;;68.78;33.70;;;12.90;99.90;;;;;;4994200;28;20058;-79
2021/06/27 00:32:44;;;;;;;69.50;33.10;;;13.00;99.90;;;;;;4997937;28;20038;-79
2021/06/27 00:35:12;;;;;;;64.45;30.95;;;13.00;99.90;;;;;;5013777;28;20033;-79
2021/06/27 00:37:38;;;;;;;64.60;33.55;;;13.00;99.90;;;;;;5012560;28;20029;-79
2021/06/27 00:40:10;;;;;;;60.65;32.13;;;13.00;99.90;;;;;;5013663;28;20113;-79
2021/06/27 00:42:36;;;;;;;64.20;33.65;;;13.00;99.90;;;;;;5011477;28;20030;-78
2021/06/27 00:45:03;;;;;;;58.40;33.85;;;13.00;99.90;;;;;;4993896;28;20026;-80
2021/06/27 00:47:31;;;;;;;59.15;31.25;;;13.00;99.90;;;;;;4992739;28;20113;-79
2021/06/27 00:49:57;;;;;;;64.93;33.40;;;13.00;99.90;;;;;;5009086;28;20096;-79
2021/06/27 00:52:24;;;;;;;64.00;31.42;;;13.10;99.90;;;;;;4995828;28;20109;-79
2021/06/27 00:54:50;;;;;;;64.05;32.85;;;13.10;99.90;;;;;;5009055;28;20124;-79
2021/06/27 00:57:16;;;;;;;62.45;32.10;;;13.20;99.90;;;;;;4993797;28;20101;-79
2021/06/27 00:59:42;;;;;;;61.72;31.67;;;13.20;99.90;;;;;;4993570;28;20031;-79
2021/06/27 01:02:07;;;;;;;56.10;30.45;;;13.30;99.90;;;;;;4992104;28;20403;-79
2021/06/27 01:04:33;;;;;;;51.65;29.90;;;13.30;99.90;;;;;;5026746;28;20022;-79
2021/06/27 01:06:59;;;;;;;57.40;31.45;;;13.40;99.90;;;;;;5011896;28;20393;-79
2021/06/27 01:09:24;;;;;;;52.78;31.00;;;13.40;99.90;;;;;;5013256;28;20037;-79
2021/06/27 01:11:50;;;;;;;49.08;29.13;;;13.40;99.90;;;;;;5011648;28;20038;-79
2021/06/27 01:14:15;;;;;;;48.95;26.52;;;13.50;99.90;;;;;;5007562;28;20038;-79
2021/06/27 01:16:41;;;;;;;47.80;27.65;;;13.50;99.90;;;;;;4993281;28;20483;-78
2021/06/27 01:19:07;;;;;;;49.30;27.52;;;13.60;99.90;;;;;;4993374;28;20026;-79
2021/06/27 01:21:35;;;;;;;41.60;24.90;;;13.60;99.90;;;;;;5008154;28;20085;-79
2021/06/27 01:24:04;;;;;;;46.75;24.45;;;13.60;99.90;;;;;;5008907;28;20029;-79
2021/06/27 01:26:30;;;;;;;49.13;25.67;;;13.60;99.90;;;;;;5012819;28;20544;-79
2021/06/27 01:28:59;;;;;;;48.40;25.42;;;13.70;99.90;;;;;;5012793;28;20029;-79
2021/06/27 01:31:26;;;;;;;43.78;24.65;;;13.70;99.90;;;;;;5011304;28;20018;-79
2021/06/27 01:33:55;;;;;;;41.00;24.80;;;13.80;99.90;;;;;;5000531;28;20022;-79
2021/06/27 01:36:22;;;;;;;29.13;19.02;;;13.80;99.90;;;;;;4991833;28;20030;-78
2021/06/27 01:38:48;;;;;;;29.50;17.15;;;13.80;99.90;;;;;;4993048;28;20033;-79
2021/06/27 01:41:13;;;;;;;33.80;16.20;;;13.90;99.90;;;;;;4992638;28;20026;-79
2021/06/27 01:43:39;;;;;;;26.55;15.60;;;13.90;99.90;;;;;;5008352;28;20029;-79
2021/06/27 01:46:05;;;;;;;22.70;15.80;;;14.00;99.90;;;;;;5011299;28;20029;-79
2021/06/27 01:48:32;;;;;;;22.52;16.17;;;14.00;99.90;;;;;;5012568;28;20030;-79
2021/06/27 01:50:59;;;;;;;22.05;14.95;;;14.00;99.90;;;;;;5011215;28;20080;-79
2021/06/27 01:53:27;;;;;;;20.25;14.10;;;14.00;99.90;;;;;;5008262;28;20038;-79
2021/06/27 01:56:06;;;;;;;19.25;13.40;;;14.10;99.90;;;;;;5012289;28;20085;-79
2021/06/27 01:58:52;;;;;;;24.83;16.00;;;14.10;99.90;;;;;;5012448;28;20018;-79
2021/06/27 02:01:25;;;;;;;27.38;16.25;;;14.10;99.90;;;;;;5012082;28;20127;-79
2021/06/27 02:03:51;;;;;;;19.55;12.40;;;14.10;99.90;;;;;;4999446;28;20050;-79
2021/06/27 02:06:18;;;;;;;19.52;13.35;;;14.10;99.90;;;;;;5008667;28;20061;-79
2021/06/27 02:08:44;;;;;;;20.40;13.15;;;14.20;99.90;;;;;;5012305;28;20052;-79
2021/06/27 02:11:11;;;;;;;23.70;15.95;;;14.20;99.90;;;;;;5010832;28;20104;-79
2021/06/27 02:13:37;;;;;;;25.85;14.48;;;14.20;99.90;;;;;;5003807;28;20045;-79
2021/06/27 02:16:04;;;;;;;21.67;14.57;;;14.20;99.90;;;;;;4992553;28;20027;-79
2021/06/27 02:18:32;;;;;;;20.30;12.77;;;14.30;99.90;;;;;;4992558;28;20097;-79
2021/06/27 02:21:01;;;;;;;21.92;13.55;;;14.30;99.90;;;;;;5007555;28;20029;-79
2021/06/27 02:23:27;;;;;;;20.77;13.73;;;14.30;99.90;;;;;;4995615;28;20034;-79
2021/06/27 02:25:53;;;;;;;21.73;13.93;;;14.30;99.90;;;;;;5012621;28;20018;-79
2021/06/27 02:28:19;;;;;;;26.83;13.88;;;14.30;99.90;;;;;;5017457;28;20121;-79
2021/06/27 02:30:45;;;;;;;23.40;15.07;;;14.20;99.90;;;;;;5018604;28;20018;-79
2021/06/27 02:33:11;;;;;;;18.88;12.38;;;14.10;99.90;;;;;;5018107;28;20034;-79
2021/06/27 02:35:37;;;;;;;16.70;12.15;;;14.00;99.90;;;;;;5016367;28;20026;-79
2021/06/27 02:38:03;;;;;;;18.10;11.50;;;14.00;99.90;;;;;;5018462;28;20034;-79
2021/06/27 02:40:29;;;;;;;17.92;12.18;;;14.00;99.90;;;;;;5018398;28;20026;-79
2021/06/27 02:42:55;;;;;;;18.88;11.98;;;14.00;99.90;;;;;;5018110;28;20083;-79
2021/06/27 02:45:21;;;;;;;17.73;13.77;;;14.00;99.90;;;;;;5004732;28;20026;-79
2021/06/27 02:47:46;;;;;;;18.05;11.98;;;13.90;99.90;;;;;;5013898;28;20093;-79
2021/06/27 02:50:14;;;;;;;17.52;12.43;;;13.90;99.90;;;;;;4998702;28;20573;-79
2021/06/27 02:52:41;;;;;;;18.98;12.48;;;13.90;99.90;;;;;;4998347;28;20034;-79
2021/06/27 02:55:08;;;;;;;19.73;12.80;;;13.80;99.90;;;;;;5007111;28;20026;-79
2021/06/27 02:57:34;;;;;;;22.45;13.55;;;13.70;99.90;;;;;;5018326;28;20065;-79
2021/06/27 03:00:00;;;;;;;15.07;10.85;;;13.70;99.90;;;;;;5017064;28;20030;-79
2021/06/27 03:02:27;;;;;;;16.20;10.45;;;13.60;99.90;;;;;;5016514;28;20034;-79
2021/06/27 03:04:53;;;;;;;13.70;10.02;;;13.50;99.90;;;;;;5013980;28;20482;-79
2021/06/27 03:07:18;;;;;;;14.05;10.52;;;13.50;99.90;;;;;;4998610;28;20035;-79
2021/06/27 03:09:44;;;;;;;16.17;11.90;;;13.50;99.90;;;;;;5013690;28;20486;-79
2021/06/27 03:12:12;;;;;;;16.80;11.10;;;13.50;99.90;;;;;;4998217;28;20062;-79
2021/06/27 03:14:37;;;;;;;15.52;11.05;;;13.50;99.90;;;;;;4998556;28;20037;-79
2021/06/27 03:17:03;;;;;;;17.02;10.98;;;13.50;99.90;;;;;;5016965;28;20030;-79
2021/06/27 03:19:29;;;;;;;20.48;12.85;;;13.50;99.90;;;;;;5018171;28;20033;-79
2021/06/27 03:21:54;;;;;;;17.98;13.68;;;13.50;99.90;;;;;;5017823;28;20479;-79
2021/06/27 03:24:20;;;;;;;16.63;12.52;;;13.50;99.90;;;;;;5018025;28;20033;-79
2021/06/27 03:26:45;;;;;;;16.42;11.43;;;13.50;99.90;;;;;;5013758;28;20076;-79
2021/06/27 03:29:11;;;;;;;15.70;10.85;;;13.60;99.90;;;;;;5013219;28;20173;-79
2021/06/27 03:31:37;;;;;;;17.70;12.20;;;13.60;99.90;;;;;;4998131;28;20034;-79
2021/06/27 03:34:02;;;;;;;21.95;13.90;;;13.60;99.90;;;;;;4998320;28;20034;-79
2021/06/27 03:36:28;;;;;;;19.27;13.52;;;13.70;99.90;;;;;;5001959;28;20026;-79
2021/06/27 03:39:07;;;;;;;19.40;13.80;;;13.70;99.90;;;;;;4993304;28;20023;-79
2021/06/27 03:41:39;;;;;;;22.67;15.10;;;13.80;99.90;;;;;;4995066;28;20069;-79
2021/06/27 03:44:04;;;;;;;24.27;15.23;;;13.80;99.90;;;;;;4993824;28;20033;-79
2021/06/27 03:46:30;;;;;;;24.92;15.15;;;14.00;99.90;;;;;;5010433;28;20113;-79
2021/06/27 03:48:56;;;;;;;22.13;14.57;;;14.00;99.90;;;;;;4995228;28;20105;-79
2021/06/27 03:51:21;;;;;;;22.73;14.88;;;14.00;99.90;;;;;;4993594;28;20027;-79
2021/06/27 03:53:47;;;;;;;22.67;15.30;;;14.20;99.90;;;;;;5009908;28;20034;-79
2021/06/27 03:56:14;;;;;;;21.55;14.48;;;14.30;99.90;;;;;;4995240;28;20038;-79
2021/06/27 03:58:39;;;;;;;21.48;14.63;;;14.30;99.90;;;;;;5013258;28;20032;-79
2021/06/27 04:01:05;;;;;;;22.95;14.20;;;14.40;99.90;;;;;;5013204;28;20108;-79
2021/06/27 04:03:30;;;;;;;25.33;14.50;;;14.50;99.90;;;;;;5014132;28;20049;-79
2021/06/27 04:05:56;;;;;;;21.33;15.57;;;14.50;99.90;;;;;;5013233;28;20506;-79
2021/06/27 04:08:21;;;;;;;20.95;15.02;;;14.60;99.90;;;;;;4997565;28;20517;-79
2021/06/27 04:10:47;;;;;;;23.35;14.60;;;14.70;99.90;;;;;;4994709;28;20022;-79
2021/06/27 04:13:13;;;;;;;24.85;16.58;;;14.70;99.90;;;;;;4994340;28;20436;-79
2021/06/27 04:15:38;;;;;;;21.67;16.08;;;14.70;99.90;;;;;;4994632;28;20027;-79
2021/06/27 04:18:06;;;;;;;24.40;16.65;;;14.80;99.90;;;;;;5004002;28;20113;-79
2021/06/27 04:20:31;;;;;;;20.90;14.65;;;14.80;99.90;;;;;;5014093;28;20478;-79
2021/06/27 04:22:57;;;;;;;21.88;15.00;;;15.00;99.90;;;;;;5013749;28;20037;-79
2021/06/27 04:25:23;;;;;;;25.25;14.90;;;14.90;99.90;;;;;;5013996;28;20104;-79
2021/06/27 04:27:48;;;;;;;21.23;14.63;;;14.90;99.90;;;;;;5008689;28;20026;-79
2021/06/27 04:30:14;;;;;;;21.45;14.98;;;14.90;99.90;;;;;;5009404;28;20022;-78
2021/06/27 04:32:40;;;;;;;21.33;14.13;;;15.00;99.90;;;;;;5012339;28;20073;-79
2021/06/27 04:35:07;;;;;;;18.15;13.65;;;15.10;99.90;;;;;;5012564;28;20034;-79
2021/06/27 04:37:33;;;;;;;23.50;14.90;;;15.10;99.90;;;;;;5012195;28;20028;-79
2021/06/27 04:39:59;;;;;;;19.25;12.82;;;15.20;99.90;;;;;;4994191;28;20026;-79
2021/06/27 04:42:24;;;;;;;18.25;14.02;;;15.20;99.90;;;;;;4993802;28;20559;-79
2021/06/27 04:44:50;;;;;;;17.05;12.70;;;15.30;99.90;;;;;;4992865;28;20117;-79
2021/06/27 04:47:15;;;;;;;20.42;13.57;;;15.30;99.90;;;;;;4992796;28;20573;-79
2021/06/27 04:49:41;;;;;;;21.52;13.85;;;15.40;99.90;;;;;;5008199;28;20364;-79
2021/06/27 04:52:08;;;;;;;18.15;12.75;;;15.40;99.90;;;;;;5011946;28;20037;-79
2021/06/27 04:54:34;;;;;;;20.33;13.57;;;15.50;99.90;;;;;;5013408;28;20442;-79
2021/06/27 04:57:00;;;;;;;17.90;12.73;;;15.50;99.90;;;;;;5013579;28;20371;-79
2021/06/27 04:59:25;;;;;;;25.10;13.43;;;15.50;99.90;;;;;;5011701;28;20053;-79
2021/06/27 05:01:51;;;;;;;17.30;12.45;;;15.60;99.90;;;;;;5013031;28;20026;-79
2021/06/27 05:04:16;;;;;;;22.23;12.75;;;15.60;99.90;;;;;;5013259;28;20523;-79
2021/06/27 05:06:42;;;;;;;15.95;12.35;;;15.70;99.90;;;;;;5013346;28;20494;-79
2021/06/27 05:09:07;;;;;;;21.20;13.30;;;15.70;99.90;;;;;;5011017;28;20111;-79
2021/06/27 05:11:33;;;;;;;19.95;13.27;;;15.70;99.90;;;;;;5011696;28;20116;-79
2021/06/27 05:13:59;;;;;;;20.02;12.57;;;15.80;99.90;;;;;;5013069;28;20026;-79
2021/06/27 05:16:24;;;;;;;20.77;13.90;;;15.80;99.90;;;;;;5011567;28;20446;-79
2021/06/27 05:18:50;;;;;;;22.13;13.50;;;15.80;99.90;;;;;;5011892;28;20033;-79
2021/06/27 05:21:15;;;;;;;15.85;11.07;;;15.90;99.90;;;;;;5011207;28;20052;-79
2021/06/27 05:23:41;;;;;;;19.20;11.93;;;16.00;99.90;;;;;;5012859;28;20037;-79
2021/06/27 05:26:07;;;;;;;18.45;12.90;;;16.00;99.90;;;;;;5028170;28;20022;-79
2021/06/27 05:28:32;;;;;;;14.32;11.77;;;16.20;99.90;;;;;;5012776;28;20026;-78
2021/06/27 05:30:58;;;;;;;17.75;10.35;;;16.10;99.90;;;;;;4999632;28;20029;-78
2021/06/27 05:33:24;;;;;;;12.75;9.55;;;16.10;99.90;;;;;;4991677;28;20491;-79
2021/06/27 05:35:49;;;;;;;15.00;10.50;;;16.10;99.90;;;;;;5025914;28;20398;-79
2021/06/27 05:38:15;;;;;;;14.93;9.93;;;16.10;99.90;;;;;;5012678;28;20030;-79
2021/06/27 05:40:40;;;;;;;15.27;9.20;;;16.20;99.90;;;;;;5004049;28;20034;-79
2021/06/27 05:43:06;;;;;;;9.38;7.93;;;16.30;99.90;;;;;;4992620;28;20026;-79
2021/06/27 05:45:32;;;;;;;10.65;8.02;;;16.30;99.90;;;;;;4993005;28;20030;-79
2021/06/27 05:47:57;;;;;;;10.50;7.97;;;16.30;99.90;;;;;;5008092;28;20129;-79
2021/06/27 05:50:23;;;;;;;13.35;7.97;;;16.20;99.90;;;;;;4994823;28;20035;-79
2021/06/27 05:52:48;;;;;;;9.80;8.40;;;16.20;99.90;;;;;;5010440;28;20026;-79
2021/06/27 05:55:14;;;;;;;10.15;7.53;;;16.30;99.90;;;;;;5011159;28;20030;-79
2021/06/27 05:57:39;;;;;;;10.35;8.60;;;16.30;99.90;;;;;;5012415;28;20109;-79
2021/06/27 06:00:06;;;;;;;11.15;8.35;;;16.30;99.90;;;;;;5010879;28;20053;-79
2021/06/27 06:02:32;;;;;;;11.77;8.52;;;16.30;99.90;;;;;;4991987;28;20035;-79
2021/06/27 06:04:57;;;;;;;9.43;8.00;;;16.40;99.90;;;;;;5012071;28;20072;-79
2021/06/27 06:07:23;;;;;;;12.77;9.18;;;16.40;99.90;;;;;;5010722;28;20079;-79
2021/06/27 06:09:48;;;;;;;8.63;7.35;;;16.50;99.90;;;;;;5012159;28;20113;-79
2021/06/27 06:12:14;;;;;;;9.98;7.65;;;16.60;99.90;;;;;;5009030;28;20079;-80
2021/06/27 06:14:39;;;;;;;8.13;7.07;;;16.90;99.90;;;;;;5005428;28;20033;-79
2021/06/27 06:17:05;;;;;;;8.40;7.45;;;17.00;99.90;;;;;;5007567;28;20102;-79
2021/06/27 06:19:30;;;;;;;16.80;7.80;;;17.00;99.90;;;;;;4991122;28;20033;-79
2021/06/27 06:21:57;;;;;;;9.70;7.30;;;16.90;99.90;;;;;;5007329;28;20114;-79
2021/06/27 06:24:23;;;;;;;9.05;7.45;;;16.90;99.90;;;;;;5011853;28;20029;-79
2021/06/27 06:26:49;;;;;;;9.98;8.60;;;16.80;99.90;;;;;;5011856;28;20033;-79
2021/06/27 06:29:14;;;;;;;9.38;7.28;;;16.80;99.90;;;;;;5011961;28;20033;-79
2021/06/27 06:31:40;;;;;;;10.77;8.32;;;16.70;99.90;;;;;;5011638;28;20072;-79
2021/06/27 06:34:06;;;;;;;9.52;7.45;;;16.70;99.90;;;;;;4996437;28;20118;-79
2021/06/27 06:36:31;;;;;;;11.15;7.78;;;16.80;99.90;;;;;;4992205;28;20076;-79
2021/06/27 06:38:57;;;;;;;11.27;7.90;;;17.00;99.90;;;;;;4992320;28;20034;-79
2021/06/27 06:41:23;;;;;;;10.85;7.88;;;17.10;99.90;;;;;;4991851;28;20030;-79
2021/06/27 06:43:49;;;;;;;8.02;7.22;;;17.20;99.90;;;;;;5001684;28;20022;-79
2021/06/27 06:46:15;;;;;;;11.05;7.22;;;17.20;99.90;;;;;;4998702;28;20037;-81
2021/06/27 06:48:40;;;;;;;8.30;6.45;;;17.30;99.90;;;;;;5006826;28;20057;-81
2021/06/27 06:51:06;;;;;;;10.07;7.38;;;17.40;99.90;;;;;;5005861;28;20033;-80
2021/06/27 06:53:31;;;;;;;7.82;6.95;;;17.40;99.90;;;;;;5004039;28;20500;-80
2021/06/27 06:55:57;;;;;;;7.82;6.55;;;17.40;99.90;;;;;;5005277;28;20026;-81
2021/06/27 06:58:27;;;;;;;7.75;6.95;;;17.40;99.90;;;;;;5002013;28;20037;-80
2021/06/27 07:00:53;;;;;;;6.97;5.85;;;17.40;99.90;;;;;;5007169;28;20080;-80
2021/06/27 07:03:18;;;;;;;7.03;5.55;;;17.50;99.90;;;;;;4997855;28;20030;-80
2021/06/27 07:05:44;;;;;;;7.82;6.20;;;17.70;99.90;;;;;;5006884;28;20076;-81
2021/06/27 07:08:09;;;;;;;9.20;5.75;;;17.60;99.90;;;;;;5022917;28;20018;-81
2021/06/27 07:10:35;;;;;;;8.50;6.85;;;17.60;99.90;;;;;;5007518;28;20065;-80
2021/06/27 07:13:00;;;;;;;9.73;6.97;;;17.70;99.90;;;;;;5008432;28;20068;-80
2021/06/27 07:15:26;;;;;;;7.75;5.43;;;17.60;99.90;;;;;;5012248;28;20033;-79
2021/06/27 07:17:52;;;;;;;8.27;6.10;;;17.50;99.90;;;;;;5009113;28;20053;-79
2021/06/27 07:20:17;;;;;;;6.40;5.80;;;17.80;99.90;;;;;;5010194;28;20032;-79
2021/06/27 07:22:43;;;;;;;6.65;5.75;;;17.90;99.90;;;;;;5010537;28;20513;-81
2021/06/27 07:25:10;;;;;;;8.23;5.70;;;17.80;99.90;;;;;;5008881;28;20054;-79
2021/06/27 07:27:36;;;;;;;8.32;6.40;;;17.90;99.90;;;;;;5010055;28;20172;-79
2021/06/27 07:30:02;;;;;;;8.57;5.47;;;18.20;99.90;;;;;;5010584;28;20554;-80
2021/06/27 07:32:28;;;;;;;6.47;5.80;;;18.40;99.90;;;;;;5010277;28;20108;-80
2021/06/27 07:34:53;;;;;;;6.65;5.78;;;18.50;99.90;;;;;;5008506;28;20116;-80
2021/06/27 07:37:19;;;;;;;7.18;5.95;;;18.40;99.90;;;;;;5010649;28;20041;-80
2021/06/27 07:39:44;;;;;;;8.60;5.35;;;18.30;99.90;;;;;;5009208;28;20584;-81
2021/06/27 07:42:10;;;;;;;9.10;7.28;;;18.30;99.90;;;;;;5010244;28;20034;-80
2021/06/27 07:44:36;;;;;;;7.60;6.80;;;18.50;99.90;;;;;;5010584;28;20024;-81
2021/06/27 07:47:01;;;;;;;11.13;6.30;;;18.70;99.90;;;;;;5009678;28;20401;-81
2021/06/27 07:49:27;;;;;;;13.13;6.40;;;18.50;99.90;;;;;;5010558;28;20371;-81
2021/06/27 07:51:52;;;;;;;9.95;7.70;;;18.40;99.90;;;;;;5014206;28;20041;-78
2021/06/27 07:54:18;;;;;;;7.30;6.60;;;18.20;99.90;;;;;;5014383;28;20034;-79
2021/06/27 07:56:44;;;;;;;7.80;6.85;;;18.20;99.90;;;;;;5002570;28;20053;-78
2021/06/27 07:59:13;;;;;;;8.07;7.00;;;18.20;99.90;;;;;;4994823;28;20457;-78
2021/06/27 08:01:38;;;;;;;7.45;5.90;;;18.10;99.90;;;;;;4994617;28;20062;-78
2021/06/27 08:04:04;;;;;;;6.15;5.50;;;18.30;99.90;;;;;;5009704;28;20406;-78
2021/06/27 08:06:30;;;;;;;8.10;6.30;;;18.50;99.90;;;;;;5001533;28;20030;-78
2021/06/27 08:08:55;;;;;;;7.72;6.47;;;18.90;99.90;;;;;;5014331;28;20029;-78
2021/06/27 08:11:21;;;;;;;7.63;6.28;;;19.00;99.90;;;;;;5012783;28;20041;-78
2021/06/27 08:13:46;;;;;;;8.23;6.30;;;19.30;99.90;;;;;;5014095;28;20026;-78
2021/06/27 08:16:12;;;;;;;6.50;5.72;;;19.70;99.90;;;;;;5010367;28;20030;-78
2021/06/27 08:18:37;;;;;;;8.25;5.82;;;20.00;99.90;;;;;;4993184;28;20483;-78
2021/06/27 08:21:04;;;;;;;6.88;5.75;;;20.10;99.90;;;;;;4994495;28;20054;-78
2021/06/27 08:23:29;;;;;;;8.10;5.60;;;20.10;99.90;;;;;;4993665;28;20046;-78
2021/06/27 08:25:55;;;;;;;7.85;6.53;;;19.80;99.90;;;;;;5009467;28;20364;-78
2021/06/27 08:28:20;;;;;;;13.35;5.82;;;19.50;99.90;;;;;;5010526;28;20592;-78
2021/06/27 08:30:46;;;;;;;5.32;4.70;;;19.30;99.90;;;;;;5013815;28;20540;-79
2021/06/27 08:33:12;;;;;;;7.38;5.00;;;19.60;99.90;;;;;;5012235;28;20421;-78
2021/06/27 08:35:37;;;;;;;6.63;5.90;;;20.00;99.90;;;;;;5013796;28;20037;-78
2021/06/27 08:38:03;;;;;;;10.15;6.20;;;20.20;99.90;;;;;;5009019;28;20498;-80
2021/06/27 08:40:29;;;;;;;7.78;5.05;;;20.50;99.90;;;;;;4994134;28;20578;-80
2021/06/27 08:42:55;;;;;;;5.20;4.70;;;20.90;99.90;;;;;;4993782;28;20117;-80
2021/06/27 08:45:23;;;;;;;5.32;4.68;;;21.20;99.90;;;;;;4993954;28;20077;-79
2021/06/27 08:47:51;;;;;;;6.45;5.40;;;21.30;99.90;;;;;;4993958;28;20019;-81
2021/06/27 08:50:17;;;;;;;9.38;4.70;;;20.90;99.90;;;;;;4994042;28;20681;-80
2021/06/27 08:52:45;;;;;;;5.35;4.85;;;20.70;99.90;;;;;;4993477;28;20109;-79
2021/06/27 08:55:12;;;;;;;5.18;4.68;;;20.60;99.90;;;;;;5008876;28;20030;-79
2021/06/27 08:57:39;;;;;;;5.22;4.18;;;20.90;99.90;;;;;;4995497;28;20109;-79
2021/06/27 09:00:06;;;;;;;6.78;4.82;;;21.30;99.90;;;;;;5012132;28;20520;-79
2021/06/27 09:02:33;;;;;;;6.78;4.95;;;21.70;99.90;;;;;;5012777;28;20552;-80
2021/06/27 09:04:59;;;;;;;5.93;4.53;;;21.40;99.90;;;;;;5013308;28;20100;-81
2021/06/27 09:07:38;;;;;;;5.35;4.53;;;21.10;99.90;;;;;;5013310;28;20117;-79
2021/06/27 09:10:09;;;;;;;4.88;4.43;;;20.80;99.90;;;;;;5012276;28;20109;-80
2021/06/27 09:12:58;;;;;;;6.47;4.00;;;20.30;99.90;;;;;;5012838;28;20072;-79
2021/06/27 09:15:38;;;;;;;5.80;4.05;;;20.70;99.90;;;;;;5011930;28;20053;-79
2021/06/27 09:18:24;;;;;;;5.45;4.53;;;21.20;99.90;;;;;;5011280;28;20026;-79
2021/06/27 09:20:53;;;;;;;4.68;4.10;;;21.80;99.90;;;;;;5012465;28;20100;-79
2021/06/27 09:23:34;;;;;;;6.95;3.67;;;22.30;99.90;;;;;;5011253;28;20022;-79
2021/06/27 09:26:00;;;;;;;5.90;4.43;;;22.90;99.90;;;;;;5011581;28;20041;-79
2021/06/27 09:28:43;;;;;;;11.07;4.78;;;22.80;99.90;;;;;;5027336;28;20054;-79
2021/06/27 09:31:09;;;;;;;4.17;3.77;;;22.60;99.90;;;;;;5011441;28;20397;-79
2021/06/27 09:33:35;;;;;;;4.47;4.07;;;22.90;99.90;;;;;;5012661;28;20349;-79
2021/06/27 09:36:11;;;;;;;4.53;4.07;;;22.90;99.90;;;;;;5011925;28;20053;-79
2021/06/27 09:38:46;;;;;;;5.78;3.97;;;22.90;99.90;;;;;;5011505;28;20076;-80
2021/06/27 09:41:25;;;;;;;5.15;4.18;;;23.00;99.90;;;;;;4992997;28;20486;-80
2021/06/27 09:43:59;;;;;;;3.90;3.50;;;22.80;99.90;;;;;;4992845;28;20414;-80
2021/06/27 09:46:43;;;;;;;4.05;3.65;;;22.70;99.90;;;;;;4992921;28;20027;-80
2021/06/27 09:49:09;;;;;;;;;;;23.00;99.90;;;;;;5000758;28;20033;-80
2021/06/27 09:51:36;;;;;;;4.72;4.03;;;23.10;99.90;;;;;;5008035;28;20313;-80
2021/06/27 09:54:02;;;;;;;5.40;4.90;;;23.10;99.90;;;;;;5007733;28;20076;-81
2021/06/27 09:56:35;;;;;;;4.88;4.32;;;22.70;99.90;;;;;;5003028;28;20030;-82
2021/06/27 09:59:08;;;;;;;3.92;3.53;;;22.60;99.90;;;;;;5008060;28;20106;-81
2021/06/27 10:01:36;;;;;;;5.70;4.22;;;22.70;99.90;;;;;;5011757;28;20509;-81
2021/06/27 10:04:06;;;;;;;4.15;3.78;;;23.00;99.90;;;;;;5007785;28;20080;-80
2021/06/27 10:06:46;;;;;;;4.40;4.00;;;23.10;99.90;;;;;;5007866;28;20041;-81
2021/06/27 10:09:15;;;;;;;6.25;4.22;;;23.30;99.90;;;;;;5008031;28;20021;-81
2021/06/27 10:12:01;;;;;;;8.50;4.40;;;23.40;99.90;;;;;;5003124;28;20501;-80
2021/06/27 10:14:48;;;;;;;4.65;4.00;;;23.60;99.90;;;;;;5007685;28;20113;-81
2021/06/27 10:17:13;;;;;;;4.35;3.60;;;23.80;99.90;;;;;;5007290;28;20461;-80
2021/06/27 10:19:40;;;;;;;6.00;3.38;;;23.40;99.90;;;;;;5006396;28;20029;-79
2021/06/27 10:22:05;;;;;;;3.55;3.25;;;23.10;99.90;;;;;;5007467;28;20029;-80
2021/06/27 10:24:31;;;;;;;4.93;3.33;;;23.30;99.90;;;;;;5004156;28;20086;-80
2021/06/27 10:26:57;;;;;;;3.85;3.17;;;23.10;99.90;;;;;;5007920;28;20441;-80
2021/06/27 10:29:24;;;;;;;6.55;3.35;;;23.10;99.90;;;;;;5008116;28;20022;-80
2021/06/27 10:31:51;;;;;;;4.32;3.38;;;22.80;99.90;;;;;;5008132;28;20397;-80
2021/06/27 10:34:19;;;;;;;3.78;2.90;;;22.80;99.90;;;;;;5002641;28;20027;-79
2021/06/27 10:36:55;;;;;;;2.95;2.65;;;23.00;99.90;;;;;;5007753;28;20030;-80
2021/06/27 10:39:22;;;;;;;4.03;2.35;;;22.80;99.90;;;;;;5006890;28;20033;-80
2021/06/27 10:41:55;;;;;;;9.18;2.90;;;23.00;99.90;;;;;;5006715;28;20050;-80
2021/06/27 10:44:45;;;;;;;3.85;2.70;;;23.40;99.90;;;;;;5005052;28;20590;-81
2021/06/27 10:47:30;;;;;;;2.97;2.08;;;23.70;99.90;;;;;;5011498;28;20036;-80
2021/06/27 10:49:55;;;;;;;2.17;2.00;;;24.20;99.90;;;;;;5011755;28;20021;-80
2021/06/27 10:52:22;;;;;;;3.95;2.28;;;24.30;99.90;;;;;;5010929;28;20486;-82
2021/06/27 10:55:18;;;;;;;3.03;2.63;;;24.40;99.90;;;;;;5009347;28;20494;-82
2021/06/27 10:57:54;;;;;;;3.40;2.30;;;24.00;99.90;;;;;;5005996;28;20040;-81
2021/06/27 11:00:21;;;;;;;2.55;2.35;;;23.80;99.90;;;;;;5010242;28;20022;-82
2021/06/27 11:02:47;;;;;;;2.25;1.95;;;23.60;99.90;;;;;;5011249;28;20032;-80
2021/06/27 11:05:28;;;;;;;1.70;1.60;;;23.70;99.90;;;;;;5010389;28;20097;-81
2021/06/27 11:07:55;;;;;;;4.07;1.98;;;24.20;99.90;;;;;;5003525;28;20492;-81
2021/06/27 11:10:20;;;;;;;2.05;1.88;;;24.40;99.90;;;;;;5011029;28;20022;-80
2021/06/27 11:12:57;;;;;;;1.67;1.58;;;24.30;99.90;;;;;;5011073;28;20144;-80
2021/06/27 11:15:34;;;;;;;1.90;1.70;;;24.00;99.90;;;;;;5010679;28;20084;-81
2021/06/27 11:18:01;;;;;;;3.40;1.98;;;23.90;99.90;;;;;;5010368;28;20045;-81
2021/06/27 11:20:32;;;;;;;3.20;1.92;;;23.90;99.90;;;;;;5010950;28;20038;-81
2021/06/27 11:22:58;;;;;;;4.72;2.10;;;24.10;99.90;;;;;;5009463;28;20545;-80
2021/06/27 11:25:42;;;;;;;5.35;1.55;;;24.20;99.90;;;;;;5009466;28;20037;-81
2021/06/27 11:28:22;;;;;;;;;;;24.50;99.90;;;;;;5007435;28;20046;-79
2021/06/27 11:30:49;;;;;;;;;;;24.50;99.90;;;;;;5009810;28;20377;-80
2021/06/27 11:33:19;;;;;;;;;;;24.30;99.90;;;;;;5011054;28;19906;-81
2021/06/27 11:35:49;;;;;;;;;;;24.40;99.90;;;;;;5011087;28;19912;-80
2021/06/27 11:38:33;;;;;;;;;;;24.50;99.90;;;;;;5015539;28;19909;-81
2021/06/27 11:40:59;;;;;;;;;;;24.30;99.90;;;;;;5009907;28;19912;-80
2021/06/27 11:43:43;;;;;;;;;;;24.40;99.90;;;;;;5010643;28;20289;-81
2021/06/27 11:46:28;;;;;;;;;;;24.70;99.90;;;;;;5011669;28;19905;-81
2021/06/27 11:48:54;;;;;;;;;;;24.90;99.90;;;;;;5003224;28;20297;-81
2021/06/27 11:51:19;;;;;;;;;;;25.30;99.90;;;;;;5010674;28;19913;-81
2021/06/27 11:53:45;;;;;;;;;;;25.30;99.90;;;;;;5009143;28;20452;-80
2021/06/27 11:56:12;;;;;;;;;;;25.30;99.90;;;;;;5006940;28;19916;-80
2021/06/27 11:58:38;;;;;;;;;;;25.00;99.90;;;;;;5006774;28;19941;-81
2021/06/27 12:01:04;;;;;;;;;;;25.10;99.90;;;;;;5009475;28;19952;-80
2021/06/27 12:03:30;;;;;;;;;;;25.40;99.90;;;;;;5010725;28;19940;-80
2021/06/27 12:05:57;;;;;;;;;;;25.60;99.90;;;;;;5010952;28;20356;-80
2021/06/27 12:08:23;;;;;;;;;;;25.40;99.90;;;;;;5009893;28;19913;-79
2021/06/27 12:10:51;;;;;;;;;;;25.60;99.90;;;;;;5017203;28;19956;-80
2021/06/27 12:13:17;;;;;;;;;;;25.50;99.90;;;;;;5009298;28;19905;-81
2021/06/27 12:15:50;;;;;;;;;;;25.80;99.90;;;;;;5009498;28;19906;-80
2021/06/27 12:18:19;;;;;;;;;;;25.70;99.90;;;;;;5010093;28;19910;-81
2021/06/27 12:20:47;;;;;;;;;;;25.60;99.90;;;;;;5010787;28;19976;-80
2021/06/27 12:23:33;;;;;;;;;;;25.40;99.90;;;;;;5008770;28;19913;-79
2021/06/27 12:26:00;;;;;;;;;;;25.40;99.90;;;;;;5002277;28;19932;-80
2021/06/27 12:28:39;;;;;;;;;;;25.70;99.90;;;;;;5008603;28;19913;-78
2021/06/27 12:31:24;;;;;;;;;;;26.00;99.90;;;;;;5009159;28;19913;-79
2021/06/27 12:33:51;;;;;;;;;;;26.00;99.90;;;;;;5009722;28;19940;-79
2021/06/27 12:36:22;;;;;;;;;;;25.90;99.90;;;;;;5009617;28;20381;-78
2021/06/27 12:38:48;;;;;;;;;;;25.80;99.90;;;;;;5010907;28;19909;-77
2021/06/27 12:41:18;;;;;;;;;;;25.80;99.90;;;;;;5010706;28;19909;-77
2021/06/27 12:43:44;;;;;;;;;;;26.10;99.90;;;;;;5010503;28;19968;-77
2021/06/27 12:46:26;;;;;;;;;;;26.00;99.90;;;;;;5009888;28;19909;-77
2021/06/27 12:49:01;;;;;;;;;;;26.30;99.90;;;;;;5010551;28;19985;-78